Time;durP1;ratioP1;P1;durP2;ratioP2;P2;SDS_P1;SDS_P2;PMS_P1;PMS_P2;Temp;Humidity;BMP_temperature;BMP_pressure;BME280_temperature;BME280_humidity;BME280_pressure;Samples;Min_cycle;Max_cycle;Signal;HPM_P1;HPM_P2
2023/04/20 00:04:28;;;;;;;;;;;;;;;3.53;100.00;95585.44;10580313;28;1976;-78
2023/04/20 00:09:31;;;;;;;;;;;;;;;3.48;100.00;95572.84;10559687;27;1897;-77
2023/04/20 00:14:33;;;;;;;;;;;;;;;3.34;100.00;95576.00;10579228;27;2000;-79
2023/04/20 00:19:36;;;;;;;;;;;;;;;3.42;100.00;95567.66;10570813;28;1996;-78
2023/04/20 00:24:43;;;;;;;;;;;;;;;3.45;100.00;95553.94;10573895;27;2018;-78
2023/04/20 00:29:46;;;;;;;;;;;;;;;3.59;100.00;95552.63;10565219;28;1976;-78
2023/04/20 00:34:49;;;;;;;;;;;;;;;3.59;100.00;95542.00;10562275;27;1957;-77
2023/04/20 00:39:51;;;;;;;;;;;;;;;3.58;100.00;95537.72;10567355;28;2163;-77
2023/04/20 00:44:54;;;;;;;;;;;;;;;3.64;100.00;95533.31;10570803;27;1991;-78
2023/04/20 00:49:57;;;;;;;;;;;;;;;3.52;100.00;95526.19;10572082;27;2053;-77
2023/04/20 00:55:02;;;;;;;;;;;;;;;3.49;100.00;95512.53;10568759;27;1945;-78
2023/04/20 01:00:06;;;;;;;;;;;;;;;3.49;100.00;95507.22;10565407;27;2015;-79
2023/04/20 01:05:09;;;;;;;;;;;;;;;3.36;100.00;95494.22;10546736;27;1956;-78
2023/04/20 01:10:12;;;;;;;;;;;;;;;3.39;100.00;95494.56;10562617;27;1989;-77
2023/04/20 01:15:14;;;;;;;;;;;;;;;3.39;100.00;95489.25;10567996;27;2107;-78
2023/04/20 01:20:16;;;;;;;;;;;;;;;3.41;100.00;95470.41;10566181;28;2059;-78
2023/04/20 01:25:27;;;;;;;;;;;;;;;3.41;100.00;95473.06;10566895;27;1965;-77
2023/04/20 01:30:40;;;;;;;;;;;;;;;3.35;100.00;95471.34;10562245;27;2027;-78
2023/04/20 01:35:43;;;;;;;;;;;;;;;3.39;100.00;95480.47;10562554;28;2049;-79
2023/04/20 01:40:46;;;;;;;;;;;;;;;3.21;100.00;95471.59;10572228;27;2005;-79
2023/04/20 01:45:48;;;;;;;;;;;;;;;3.34;100.00;95480.34;10561662;28;1985;-78
2023/04/20 01:50:52;;;;;;;;;;;;;;;3.34;100.00;95472.38;10562752;28;1980;-78
2023/04/20 01:55:57;;;;;;;;;;;;;;;3.33;100.00;95460.97;10556231;28;2027;-81
2023/04/20 02:01:01;;;;;;;;;;;;;;;3.33;100.00;95457.50;10542032;28;2003;-78
2023/04/20 02:06:04;;;;;;;;;;;;;;;3.32;100.00;95455.88;10561188;28;1991;-77
2023/04/20 02:11:07;;;;;;;;;;;;;;;3.23;100.00;95447.47;10565278;28;2059;-78
2023/04/20 02:16:10;;;;;;;;;;;;;;;3.24;100.00;95443.75;10564325;28;2010;-77
2023/04/20 02:21:14;;;;;;;;;;;;;;;3.16;100.00;95447.59;10566713;27;2131;-80
2023/04/20 02:26:17;;;;;;;;;;;;;;;3.25;100.00;95440.88;10553336;28;2287;-77
2023/04/20 02:31:20;;;;;;;;;;;;;;;3.14;100.00;95443.56;10563902;28;2230;-79
2023/04/20 02:36:23;;;;;;;;;;;;;;;3.00;100.00;95443.03;10547045;28;2072;-78
2023/04/20 02:41:26;;;;;;;;;;;;;;;2.88;100.00;95444.88;10559985;28;2090;-78
2023/04/20 02:46:28;;;;;;;;;;;;;;;2.84;100.00;95435.78;10567953;28;1954;-78
2023/04/20 02:51:31;;;;;;;;;;;;;;;2.88;100.00;95426.31;10560362;28;2014;-78
2023/04/20 02:56:34;;;;;;;;;;;;;;;2.94;100.00;95417.41;10567490;28;2108;-77
2023/04/20 03:01:36;;;;;;;;;;;;;;;2.90;100.00;95414.41;10557688;28;2009;-79
2023/04/20 03:06:39;;;;;;;;;;;;;;;2.91;100.00;95412.56;10558493;28;1981;-78
2023/04/20 03:11:41;;;;;;;;;;;;;;;2.91;100.00;95407.25;10572926;28;1960;-78
2023/04/20 03:16:44;;;;;;;;;;;;;;;2.93;100.00;95413.16;10573572;27;1992;-78
2023/04/20 03:21:46;;;;;;;;;;;;;;;2.96;100.00;95404.69;10572681;27;2023;-76
2023/04/20 03:26:49;;;;;;;;;;;;;;;3.01;100.00;95396.03;10567674;28;2111;-79
2023/04/20 03:31:52;;;;;;;;;;;;;;;2.95;100.00;95389.81;10568939;27;1980;-77
2023/04/20 03:36:55;;;;;;;;;;;;;;;2.95;100.00;95389.81;10573074;27;2008;-77
2023/04/20 03:41:58;;;;;;;;;;;;;;;2.94;100.00;95388.22;10573918;28;1980;-78
2023/04/20 03:47:01;;;;;;;;;;;;;;;2.86;100.00;95388.53;10577530;27;2066;-77
2023/04/20 03:52:03;;;;;;;;;;;;;;;2.90;100.00;95392.34;10583319;27;2045;-77
2023/04/20 03:57:07;;;;;;;;;;;;;;;2.87;100.00;95384.88;10564611;27;1973;-77
2023/04/20 04:02:12;;;;;;;;;;;;;;;2.81;100.00;95388.47;10570235;27;1964;-80
2023/04/20 04:07:14;;;;;;;;;;;;;;;2.71;100.00;95383.75;10574865;27;2080;-79
2023/04/20 04:12:17;;;;;;;;;;;;;;;2.66;100.00;95368.50;10560399;28;1975;-77
2023/04/20 04:17:30;;;;;;;;;;;;;;;2.66;100.00;95367.69;10577599;27;2047;-76
2023/04/20 04:22:32;;;;;;;;;;;;;;;2.76;100.00;95377.75;10576186;27;1920;-82
2023/04/20 04:27:36;;;;;;;;;;;;;;;2.83;100.00;95373.91;10569759;28;2023;-76
2023/04/20 04:32:38;;;;;;;;;;;;;;;2.77;100.00;95366.06;10574141;27;1936;-77
2023/04/20 04:37:43;;;;;;;;;;;;;;;2.76;100.00;95361.81;10573054;28;1981;-76
2023/04/20 04:42:46;;;;;;;;;;;;;;;2.73;100.00;95363.06;10566823;27;1988;-78
2023/04/20 04:47:51;;;;;;;;;;;;;;;2.74;100.00;95367.38;10569398;27;2031;-77
2023/04/20 04:52:54;;;;;;;;;;;;;;;2.74;100.00;95363.91;10573727;27;2132;-79
2023/04/20 04:57:57;;;;;;;;;;;;;;;2.74;100.00;95363.91;10567335;28;2239;-77
2023/04/20 05:02:59;;;;;;;;;;;;;;;2.82;100.00;95376.81;10566122;27;1968;-78
2023/04/20 05:08:02;;;;;;;;;;;;;;;2.71;100.00;95354.53;10552653;27;2043;-82
2023/04/20 05:13:06;;;;;;;;;;;;;;;2.67;100.00;95370.16;10572923;27;1972;-77
2023/04/20 05:18:08;;;;;;;;;;;;;;;2.59;100.00;95367.03;10568624;28;2159;-78
2023/04/20 05:23:11;;;;;;;;;;;;;;;2.64;100.00;95365.28;10575562;27;2039;-80
2023/04/20 05:28:14;;;;;;;;;;;;;;;2.78;100.00;95373.00;10570415;27;1988;-78
2023/04/20 05:33:16;;;;;;;;;;;;;;;2.81;100.00;95372.53;10564373;28;1912;-78
2023/04/20 05:38:19;;;;;;;;;;;;;;;2.88;100.00;95354.63;10564847;28;1972;-76
2023/04/20 05:43:22;;;;;;;;;;;;;;;2.84;100.00;95362.25;10568318;27;2032;-78
2023/04/20 05:48:26;;;;;;;;;;;;;;;2.84;100.00;95366.75;10572971;27;2051;-78
2023/04/20 05:53:31;;;;;;;;;;;;;;;2.72;100.00;95359.63;10564688;28;2377;-81
2023/04/20 05:58:34;;;;;;;;;;;;;;;2.92;100.00;95363.72;10570365;28;1972;-79
2023/04/20 06:03:36;;;;;;;;;;;;;;;3.07;100.00;95364.03;10572151;28;1975;-78
2023/04/20 06:08:39;;;;;;;;;;;;;;;3.04;100.00;95353.88;10572756;28;2029;-77
2023/04/20 06:13:42;;;;;;;;;;;;;;;3.20;100.00;95347.81;10577066;27;2005;-79
2023/04/20 06:18:45;;;;;;;;;;;;;;;3.02;100.00;95355.16;10573208;28;1974;-82
2023/04/20 06:23:47;;;;;;;;;;;;;;;2.96;100.00;95351.59;10573995;28;1964;-89
2023/04/20 06:28:51;;;;;;;;;;;;;;;3.06;100.00;95351.81;10595269;27;1738;-90
2023/04/20 06:33:54;;;;;;;;;;;;;;;3.00;100.00;95342.13;10598846;28;1958;-78
2023/04/20 06:38:56;;;;;;;;;;;;;;;3.16;100.00;95336.03;10576758;28;1992;-81
2023/04/20 06:43:58;;;;;;;;;;;;;;;3.27;100.00;95325.63;10572344;28;2036;-83
2023/04/20 06:49:01;;;;;;;;;;;;;;;3.25;100.00;95313.38;10579092;27;2032;-77
2023/04/20 06:54:10;;;;;;;;;;;;;;;3.43;100.00;95320.31;10583441;27;1981;-80
2023/04/20 06:59:14;;;;;;;;;;;;;;;3.47;100.00;95324.13;10576205;27;2001;-80
2023/04/20 07:04:17;;;;;;;;;;;;;;;3.58;100.00;95311.81;10580836;27;1949;-81
2023/04/20 07:09:21;;;;;;;;;;;;;;;3.53;100.00;95317.03;10579451;27;1990;-79
2023/04/20 07:14:24;;;;;;;;;;;;;;;3.43;100.00;95322.97;10580525;28;2263;-80
2023/04/20 07:19:28;;;;;;;;;;;;;;;3.34;100.00;95321.75;10581219;27;2179;-77
2023/04/20 07:24:31;;;;;;;;;;;;;;;3.11;100.00;95333.28;10561962;28;1981;-80
2023/04/20 07:29:33;;;;;;;;;;;;;;;3.31;100.00;95318.75;10584257;27;2005;-80
2023/04/20 07:34:35;;;;;;;;;;;;;;;3.30;100.00;95335.75;10580838;28;2059;-79
2023/04/20 07:39:43;;;;;;;;;;;;;;;3.36;100.00;95350.75;10585653;28;1972;-80
2023/04/20 07:44:46;;;;;;;;;;;;;;;3.43;100.00;95356.72;10586062;28;1964;-81
2023/04/20 07:49:48;;;;;;;;;;;;;;;3.31;100.00;95354.13;10592247;28;2069;-91
2023/04/20 07:54:52;;;;;;;;;;;;;;;3.41;100.00;95358.81;10582400;28;1897;-79
2023/04/20 07:59:55;;;;;;;;;;;;;;;3.42;100.00;95341.81;10581173;27;1930;-82
2023/04/20 08:04:58;;;;;;;;;;;;;;;3.48;100.00;95344.31;10565039;28;2311;-73
2023/04/20 08:10:01;;;;;;;;;;;;;;;3.71;100.00;95343.41;10572213;27;2092;-70
2023/04/20 08:15:05;;;;;;;;;;;;;;;3.73;100.00;95329.84;10570953;27;2084;-80
2023/04/20 08:20:09;;;;;;;;;;;;;;;3.81;100.00;95316.16;10569572;27;2026;-78
2023/04/20 08:25:17;;;;;;;;;;;;;;;3.95;100.00;95316.66;10570176;27;2027;-79
2023/04/20 08:30:20;;;;;;;;;;;;;;;4.00;100.00;95314.03;10560310;28;2129;-78
2023/04/20 08:35:23;;;;;;;;;;;;;;;4.16;100.00;95329.19;10567549;28;2029;-81
2023/04/20 08:40:27;;;;;;;;;;;;;;;3.99;100.00;95325.75;10599286;28;1953;-83
2023/04/20 08:45:30;;;;;;;;;;;;;;;3.97;100.00;95320.66;10598022;27;1863;-82
2023/04/20 08:50:32;;;;;;;;;;;;;;;4.07;100.00;95315.50;10589419;27;2017;-80
2023/04/20 08:55:35;;;;;;;;;;;;;;;4.37;100.00;95316.19;10596302;28;1967;-82
2023/04/20 09:00:37;;;;;;;;;;;;;;;4.25;100.00;95325.06;10597292;27;2350;-85
2023/04/20 09:05:40;;;;;;;;;;;;;;;4.32;100.00;95327.53;10582675;27;1956;-80
2023/04/20 09:10:43;;;;;;;;;;;;;;;4.41;100.00;95323.44;10581844;27;2166;-79
2023/04/20 09:15:45;;;;;;;;;;;;;;;4.60;100.00;95329.28;10583741;27;1977;-78
2023/04/20 09:20:48;;;;;;;;;;;;;;;4.47;100.00;95327.78;10575978;28;1977;-79
2023/04/20 09:25:51;;;;;;;;;;;;;;;4.26;100.00;95333.84;10574495;28;2211;-76
2023/04/20 09:30:55;;;;;;;;;;;;;;;4.22;100.00;95332.75;10575590;28;2000;-78
2023/04/20 09:35:58;;;;;;;;;;;;;;;4.16;100.00;95333.72;10582452;27;1983;-79
2023/04/20 09:41:00;;;;;;;;;;;;;;;4.23;100.00;95329.81;10576199;27;2022;-81
2023/04/20 09:46:03;;;;;;;;;;;;;;;4.34;100.00;95336.09;10572020;28;1952;-81
2023/04/20 09:51:07;;;;;;;;;;;;;;;4.46;100.00;95306.72;10577475;27;1960;-81
2023/04/20 09:56:09;;;;;;;;;;;;;;;4.65;100.00;95310.69;10576341;27;1953;-78
2023/04/20 10:01:14;;;;;;;;;;;;;;;4.69;100.00;95305.66;10576025;27;2096;-81
2023/04/20 10:06:16;;;;;;;;;;;;;;;4.83;100.00;95288.25;10581642;27;1921;-81
2023/04/20 10:11:20;;;;;;;;;;;;;;;4.79;100.00;95295.16;10584404;28;1939;-79
2023/04/20 10:16:23;;;;;;;;;;;;;;;5.09;100.00;95271.53;10572303;28;2223;-80
2023/04/20 10:21:28;;;;;;;;;;;;;;;5.45;100.00;95279.03;10575158;28;1910;-79
2023/04/20 10:26:30;;;;;;;;;;;;;;;5.95;100.00;95276.00;10573596;28;2016;-80
2023/04/20 10:31:32;;;;;;;;;;;;;;;6.05;100.00;95275.28;10564893;28;2049;-81
2023/04/20 10:36:36;;;;;;;;;;;;;;;5.81;100.00;95264.94;10574403;28;2079;-79
2023/04/20 10:41:38;;;;;;;;;;;;;;;5.36;100.00;95271.50;10571495;28;1936;-80
2023/04/20 10:46:40;;;;;;;;;;;;;;;5.35;100.00;95280.56;10569428;28;2091;-78
2023/04/20 10:51:43;;;;;;;;;;;;;;;5.16;100.00;95268.66;10568352;28;1919;-74
2023/04/20 10:56:45;;;;;;;;;;;;;;;5.46;100.00;95272.66;10558239;28;1960;-74
2023/04/20 11:01:48;;;;;;;;;;;;;;;5.65;100.00;95263.22;10561359;28;2117;-73
2023/04/20 11:06:51;;;;;;;;;;;;;;;5.88;100.00;95248.72;10554584;28;2037;-73
2023/04/20 11:11:53;;;;;;;;;;;;;;;5.80;100.00;95236.66;10562179;28;2026;-73
2023/04/20 11:16:56;;;;;;;;;;;;;;;5.88;100.00;95244.19;10561531;28;1977;-75
2023/04/20 11:21:59;;;;;;;;;;;;;;;5.71;100.00;95235.53;10563906;28;1930;-75
2023/04/20 11:27:03;;;;;;;;;;;;;;;5.78;100.00;95216.63;10567195;28;2076;-73
2023/04/20 11:32:06;;;;;;;;;;;;;;;6.05;100.00;95213.91;10547797;28;2003;-73
2023/04/20 11:37:10;;;;;;;;;;;;;;;6.44;100.00;95223.19;10569466;28;2026;-75
2023/04/20 11:42:13;;;;;;;;;;;;;;;6.57;100.00;95213.88;10565866;27;2026;-75
2023/04/20 11:47:15;;;;;;;;;;;;;;;6.57;100.00;95210.41;10573265;28;1995;-73
2023/04/20 11:52:18;;;;;;;;;;;;;;;6.62;100.00;95216.56;10567387;27;2068;-73
2023/04/20 11:57:22;;;;;;;;;;;;;;;6.51;100.00;95201.56;10567099;28;2088;-72
2023/04/20 12:02:26;;;;;;;;;;;;;;;6.22;100.00;95206.50;10567437;28;1985;-73
2023/04/20 12:07:28;;;;;;;;;;;;;;;6.16;100.00;95204.88;10571354;28;1984;-75
2023/04/20 12:12:31;;;;;;;;;;;;;;;6.93;100.00;95198.72;10564453;27;1976;-74
2023/04/20 12:17:33;;;;;;;;;;;;;;;6.70;100.00;95201.91;10567551;27;1960;-74
2023/04/20 12:22:36;;;;;;;;;;;;;;;6.73;100.00;95190.69;10571196;27;1972;-73
2023/04/20 12:27:38;;;;;;;;;;;;;;;6.95;100.00;95193.94;10580902;27;2049;-73
2023/04/20 12:32:40;;;;;;;;;;;;;;;7.07;100.00;95182.22;10562000;28;2003;-73
2023/04/20 12:37:43;;;;;;;;;;;;;;;7.12;100.00;95172.31;10571289;28;1871;-74
2023/04/20 12:42:45;;;;;;;;;;;;;;;6.58;100.00;95179.97;10563578;28;2038;-74
2023/04/20 12:47:48;;;;;;;;;;;;;;;7.03;100.00;95177.38;10545434;28;2070;-74
2023/04/20 12:52:54;;;;;;;;;;;;;;;6.55;100.00;95169.78;10565358;28;1977;-74
2023/04/20 12:57:57;;;;;;;;;;;;;;;6.46;100.00;95170.31;10565178;28;2040;-74
2023/04/20 13:03:00;;;;;;;;;;;;;;;7.20;100.00;95171.00;10560649;28;2104;-73
2023/04/20 13:08:03;;;;;;;;;;;;;;;7.52;100.00;95179.56;10564505;28;1981;-74
2023/04/20 13:13:05;;;;;;;;;;;;;;;7.32;100.00;95166.19;10549036;27;1987;-75
2023/04/20 13:18:08;;;;;;;;;;;;;;;7.22;100.00;95168.84;10567267;27;2014;-74
2023/04/20 13:23:11;;;;;;;;;;;;;;;6.83;100.00;95164.00;10563771;28;1963;-76
2023/04/20 13:28:14;;;;;;;;;;;;;;;6.83;100.00;95153.31;10565620;28;1893;-72
2023/04/20 13:33:17;;;;;;;;;;;;;;;6.57;100.00;95157.00;10565438;27;2099;-74
2023/04/20 13:38:20;;;;;;;;;;;;;;;6.68;100.00;95145.25;10568398;28;2040;-74
2023/04/20 13:43:23;;;;;;;;;;;;;;;6.41;100.00;95145.47;10562290;28;1987;-73
2023/04/20 13:48:26;;;;;;;;;;;;;;;6.61;100.00;95161.53;10565037;28;2135;-72
2023/04/20 13:53:29;;;;;;;;;;;;;;;6.81;100.00;95160.81;10543350;27;2016;-71
2023/04/20 13:58:31;;;;;;;;;;;;;;;6.79;100.00;95152.22;10561471;28;2075;-74
2023/04/20 14:03:34;;;;;;;;;;;;;;;6.65;100.00;95145.81;10556586;27;2052;-75
2023/04/20 14:08:38;;;;;;;;;;;;;;;6.88;100.00;95160.53;10561717;28;1982;-74
2023/04/20 14:13:43;;;;;;;;;;;;;;;6.72;100.00;95149.81;10564318;27;1988;-74
2023/04/20 14:18:47;;;;;;;;;;;;;;;6.73;100.00;95150.63;10563968;27;2270;-74
2023/04/20 14:23:52;;;;;;;;;;;;;;;6.98;100.00;95139.16;10559725;28;2103;-72
2023/04/20 14:28:55;;;;;;;;;;;;;;;7.30;100.00;95128.22;10561655;28;1980;-75
2023/04/20 14:33:58;;;;;;;;;;;;;;;7.35;100.00;95133.56;10541596;28;2029;-76
2023/04/20 14:39:02;;;;;;;;;;;;;;;7.28;100.00;95131.16;10561423;28;2004;-79
2023/04/20 14:44:05;;;;;;;;;;;;;;;7.17;100.00;95129.56;10561975;28;1940;-78
2023/04/20 14:49:07;;;;;;;;;;;;;;;7.23;100.00;95130.34;10562765;28;2040;-79
2023/04/20 14:54:15;;;;;;;;;;;;;;;7.39;100.00;95123.16;10559673;28;1985;-78
2023/04/20 14:59:18;;;;;;;;;;;;;;;7.34;100.00;95126.63;10564926;28;1980;-74
2023/04/20 15:04:20;;;;;;;;;;;;;;;7.34;100.00;95113.25;10564452;28;1987;-72
2023/04/20 15:09:33;;;;;;;;;;;;;;;7.32;100.00;95107.38;10567080;28;2116;-74
2023/04/20 15:14:36;;;;;;;;;;;;;;;7.67;100.00;95103.81;10569170;27;2033;-73
2023/04/20 15:19:44;;;;;;;;;;;;;;;8.02;100.00;95104.81;10569619;28;1964;-74
2023/04/20 15:24:46;;;;;;;;;;;;;;;8.89;100.00;95091.75;10574091;28;2094;-74
2023/04/20 15:29:49;;;;;;;;;;;;;;;8.85;100.00;95096.09;10576096;27;1905;-74
2023/04/20 15:34:52;;;;;;;;;;;;;;;8.83;100.00;95092.88;10567937;27;2132;-73
2023/04/20 15:39:55;;;;;;;;;;;;;;;8.65;100.00;95092.47;10574020;28;2037;-74
2023/04/20 15:44:57;;;;;;;;;;;;;;;8.83;100.00;95106.28;10565601;28;1942;-76
2023/04/20 15:50:02;;;;;;;;;;;;;;;9.11;100.00;95094.03;10574217;27;2228;-75
2023/04/20 15:55:04;;;;;;;;;;;;;;;9.11;100.00;95104.75;10572110;27;2010;-77
2023/04/20 16:00:08;;;;;;;;;;;;;;;8.97;100.00;95099.22;10568233;28;2102;-73
2023/04/20 16:05:11;;;;;;;;;;;;;;;8.92;100.00;95099.25;10573013;28;1952;-74
2023/04/20 16:10:14;;;;;;;;;;;;;;;8.92;100.00;95096.56;10571244;27;2083;-74
2023/04/20 16:15:16;;;;;;;;;;;;;;;8.98;100.00;95097.34;10571344;28;2018;-74
2023/04/20 16:20:19;;;;;;;;;;;;;;;8.96;100.00;95094.13;10569336;27;1971;-74
2023/04/20 16:25:22;;;;;;;;;;;;;;;8.75;100.00;95094.28;10565344;27;1996;-73
2023/04/20 16:30:25;;;;;;;;;;;;;;;8.84;100.00;95092.63;10570860;27;1967;-73
2023/04/20 16:35:28;;;;;;;;;;;;;;;8.70;100.00;95093.50;10566621;27;1969;-73
2023/04/20 16:40:30;;;;;;;;;;;;;;;8.72;100.00;95091.38;10572564;27;1975;-72
2023/04/20 16:45:34;;;;;;;;;;;;;;;8.71;100.00;95095.09;10569444;28;2027;-74
2023/04/20 16:50:37;;;;;;;;;;;;;;;8.64;100.00;95100.75;10570130;28;2096;-73
2023/04/20 16:55:43;;;;;;;;;;;;;;;8.72;100.00;95110.13;10571353;27;1838;-73
2023/04/20 17:00:45;;;;;;;;;;;;;;;8.52;100.00;95114.50;10572047;28;1974;-73
2023/04/20 17:05:48;;;;;;;;;;;;;;;8.32;100.00;95114.56;10565114;28;1720;-74
2023/04/20 17:10:50;;;;;;;;;;;;;;;8.38;100.00;95124.22;10571441;28;1739;-74
2023/04/20 17:15:53;;;;;;;;;;;;;;;8.20;100.00;95130.16;10580853;27;1478;-75
2023/04/20 17:20:57;;;;;;;;;;;;;;;8.02;100.00;95135.06;10560006;27;1980;-73
2023/04/20 17:26:00;;;;;;;;;;;;;;;7.86;100.00;95133.47;10591421;27;1787;-74
2023/04/20 17:31:03;;;;;;;;;;;;;;;7.82;100.00;95143.94;10576151;27;1758;-73
2023/04/20 17:36:05;;;;;;;;;;;;;;;7.73;100.00;95147.44;10571401;27;1672;-75
2023/04/20 17:41:08;;;;;;;;;;;;;;;7.66;100.00;95149.59;10579283;27;1954;-74
2023/04/20 17:46:11;;;;;;;;;;;;;;;7.73;100.00;95150.09;10564932;28;1763;-75
2023/04/20 17:51:13;;;;;;;;;;;;;;;7.68;100.00;95150.09;10567730;28;1562;-75
2023/04/20 17:56:15;;;;;;;;;;;;;;;7.50;100.00;95160.28;10570163;27;2031;-74
2023/04/20 18:01:19;;;;;;;;;;;;;;;7.50;100.00;95157.59;10570521;28;2289;-74
2023/04/20 18:06:22;;;;;;;;;;;;;;;7.46;100.00;95172.59;10571968;27;1754;-74
2023/04/20 18:11:25;;;;;;;;;;;;;;;7.39;100.00;95172.06;10578474;27;2112;-72
2023/04/20 18:16:36;;;;;;;;;;;;;;;7.24;100.00;95190.75;10573443;28;1703;-73
2023/04/20 18:21:39;;;;;;;;;;;;;;;7.19;100.00;95209.47;10581728;27;2205;-73
2023/04/20 18:26:41;;;;;;;;;;;;;;;7.07;100.00;95223.09;10571574;28;2102;-74
2023/04/20 18:31:45;;;;;;;;;;;;;;;6.98;100.00;95222.81;10573089;27;1813;-73
2023/04/20 18:36:48;;;;;;;;;;;;;;;7.05;100.00;95219.88;10569415;28;2118;-74
2023/04/20 18:41:50;;;;;;;;;;;;;;;7.01;100.00;95226.84;10570184;28;2027;-72
2023/04/20 18:46:52;;;;;;;;;;;;;;;6.98;100.00;95228.16;10565118;28;2056;-72
2023/04/20 18:51:56;;;;;;;;;;;;;;;6.91;100.00;95248.97;10571384;28;2034;-72
2023/04/20 18:56:58;;;;;;;;;;;;;;;6.95;100.00;95257.28;10572109;28;2008;-74
2023/04/20 19:02:00;;;;;;;;;;;;;;;7.01;100.00;95251.69;10564005;28;1910;-73
2023/04/20 19:07:03;;;;;;;;;;;;;;;6.94;100.00;95248.47;10565078;28;1675;-73
2023/04/20 19:12:05;;;;;;;;;;;;;;;6.95;100.00;95251.94;10575527;28;2018;-75
2023/04/20 19:17:08;;;;;;;;;;;;;;;6.82;100.00;95265.78;10573437;28;2155;-77
2023/04/20 19:22:10;;;;;;;;;;;;;;;6.87;100.00;95265.78;10567520;28;2078;-75
2023/04/20 19:27:13;;;;;;;;;;;;;;;6.87;100.00;95277.31;10568554;28;2070;-74
2023/04/20 19:32:15;;;;;;;;;;;;;;;6.80;100.00;95287.41;10565177;28;1731;-73
2023/04/20 19:37:17;;;;;;;;;;;;;;;6.74;100.00;95296.47;10568604;28;2107;-72
2023/04/20 19:42:21;;;;;;;;;;;;;;;6.80;100.00;95295.41;10570503;28;2062;-71
2023/04/20 19:47:23;;;;;;;;;;;;;;;6.72;100.00;95296.72;10568083;28;2019;-73
2023/04/20 19:52:26;;;;;;;;;;;;;;;6.74;100.00;95309.81;10571364;28;1827;-73
2023/04/20 19:57:29;;;;;;;;;;;;;;;6.68;100.00;95305.50;10572776;27;2115;-73
2023/04/20 20:02:31;;;;;;;;;;;;;;;6.67;100.00;95314.59;10565868;27;2078;-73
2023/04/20 20:07:34;;;;;;;;;;;;;;;6.60;100.00;95308.69;10580364;27;2052;-72
2023/04/20 20:12:36;;;;;;;;;;;;;;;6.55;100.00;95327.34;10578285;27;1972;-73
2023/04/20 20:17:39;;;;;;;;;;;;;;;6.63;100.00;95334.88;10576823;28;2051;-72
2023/04/20 20:22:46;;;;;;;;;;;;;;;6.50;100.00;95322.81;10581644;27;1964;-75
2023/04/20 20:27:49;;;;;;;;;;;;;;;6.40;100.00;95325.41;10577723;28;1845;-72
2023/04/20 20:32:52;;;;;;;;;;;;;;;6.46;100.00;95330.50;10571261;27;1854;-74
2023/04/20 20:37:55;;;;;;;;;;;;;;;6.40;100.00;95318.19;10574276;27;2052;-75
2023/04/20 20:42:57;;;;;;;;;;;;;;;6.40;100.00;95326.19;10575769;27;2019;-73
2023/04/20 20:48:00;;;;;;;;;;;;;;;6.34;100.00;95327.22;10565116;27;2082;-74
2023/04/20 20:53:03;;;;;;;;;;;;;;;6.37;100.00;95332.06;10541268;28;2059;-73
2023/04/20 20:58:06;;;;;;;;;;;;;;;6.37;100.00;95334.75;10567973;27;1953;-73
2023/04/20 21:03:09;;;;;;;;;;;;;;;6.47;100.00;95328.63;10568000;28;2016;-71
2023/04/20 21:08:12;;;;;;;;;;;;;;;6.46;100.00;95329.72;10548513;28;1992;-75
2023/04/20 21:13:17;;;;;;;;;;;;;;;6.46;100.00;95343.06;10566821;28;2054;-72
2023/04/20 21:18:20;;;;;;;;;;;;;;;6.54;100.00;95339.09;10569637;27;2135;-72
2023/04/20 21:23:23;;;;;;;;;;;;;;;6.57;100.00;95338.59;10567506;28;1925;-72
2023/04/20 21:28:26;;;;;;;;;;;;;;;6.51;100.00;95343.09;10574056;27;2079;-72
2023/04/20 21:33:29;;;;;;;;;;;;;;;6.51;100.00;95335.09;10581076;27;2099;-73
2023/04/20 21:38:34;;;;;;;;;;;;;;;6.54;100.00;95341.75;10562786;28;2117;-72
2023/04/20 21:43:36;;;;;;;;;;;;;;;6.54;100.00;95341.75;10567556;28;2058;-73
2023/04/20 21:48:39;;;;;;;;;;;;;;;6.58;100.00;95337.53;10569561;28;2068;-72
2023/04/20 21:53:41;;;;;;;;;;;;;;;6.50;100.00;95325.47;10566894;28;2094;-73
2023/04/20 21:58:44;;;;;;;;;;;;;;;6.57;100.00;95322.56;10561769;28;2101;-72
2023/04/20 22:03:46;;;;;;;;;;;;;;;6.57;100.00;95320.69;10544418;27;2055;-73
2023/04/20 22:08:50;;;;;;;;;;;;;;;6.60;100.00;95330.03;10564352;28;2011;-71
2023/04/20 22:13:52;;;;;;;;;;;;;;;6.59;100.00;95334.59;10562459;28;2122;-72
2023/04/20 22:18:55;;;;;;;;;;;;;;;6.65;100.00;95335.41;10558645;28;2000;-72
2023/04/20 22:23:58;;;;;;;;;;;;;;;6.66;100.00;95321.81;10560717;28;2062;-71
2023/04/20 22:29:00;;;;;;;;;;;;;;;6.62;100.00;95323.41;10564615;28;2067;-72
2023/04/20 22:34:03;;;;;;;;;;;;;;;6.53;100.00;95337.50;10554937;28;2075;-71
2023/04/20 22:39:05;;;;;;;;;;;;;;;6.62;100.00;95333.28;10560275;28;2023;-70
2023/04/20 22:44:07;;;;;;;;;;;;;;;6.71;100.00;95332.50;10568393;28;2033;-70
2023/04/20 22:49:10;;;;;;;;;;;;;;;6.71;100.00;95331.72;10550188;28;2014;-70
2023/04/20 22:54:22;;;;;;;;;;;;;;;6.73;100.00;95325.03;10572658;28;2412;-70
2023/04/20 22:59:25;;;;;;;;;;;;;;;6.70;100.00;95317.56;10568172;28;2039;-72
2023/04/20 23:04:28;;;;;;;;;;;;;;;6.67;100.00;95314.59;10560243;28;2035;-70
2023/04/20 23:09:31;;;;;;;;;;;;;;;6.57;100.00;95319.91;10561781;28;2083;-72
2023/04/20 23:14:35;;;;;;;;;;;;;;;6.65;100.00;95314.84;10540091;28;2075;-71
2023/04/20 23:19:39;;;;;;;;;;;;;;;6.70;100.00;95312.22;10544926;28;1922;-74
2023/04/20 23:24:43;;;;;;;;;;;;;;;6.59;100.00;95307.06;10580237;27;2070;-71
2023/04/20 23:29:45;;;;;;;;;;;;;;;6.71;100.00;95315.69;10578889;27;2066;-71
2023/04/20 23:34:48;;;;;;;;;;;;;;;6.78;100.00;95319.72;10574896;27;2175;-75
2023/04/20 23:39:50;;;;;;;;;;;;;;;6.76;100.00;95319.19;10573343;27;1992;-70
2023/04/20 23:44:53;;;;;;;;;;;;;;;6.71;100.00;95321.84;10574530;27;2168;-72
2023/04/20 23:49:55;;;;;;;;;;;;;;;6.69;100.00;95315.16;10543507;28;2107;-72
2023/04/20 23:54:58;;;;;;;;;;;;;;;6.79;100.00;95325.88;10569678;27;2104;-72
